OPA Logo
 

ASOS: KRDM
At:2017.05.23 0156 UTC
Wind:020° @ 12KT
Viz: 10 mile(s)
Sky: clear
Temp: 82.9 F (28.3 C)
DewP: 42.1 F (5.6 C)
RH: 23%
Baro: 30.07 in.
ob: KRDM 230156Z 02012KT 10SM CLR 28/06 A3007 RMK AO2 SLP161 T02830056
Apache-SSL Logo

Valid HTML 4.01!

Central Oregon OPA Chapter

Upcoming Fly Outs


2004

June

12 Bend, OR - Flying Festival - Bend Airport

Other Fly-Out pages

Oregon Pilots Association Events Calendar

Washington Pilots Association Events

Past Fly Outs


Caldwell, ID and the Kitfox factory February 2002

XMAS Party 2001

Pasco, WA November 2001

Bend Airport Open House 2001

Flyout May 2001 to Flying M Ranch

Flyout April 2001 to Tillamook Air Museum


Web page by: gem@rellim.com